sensor_id;sensor_type;location;lat;lon;timestamp;temperature;humidity
17415;DHT22;8825;48.086;16.426;2024-01-25T00:01:57;12.20;55.00
17415;DHT22;8825;48.086;16.426;2024-01-25T00:04:24;12.10;55.10
17415;DHT22;8825;48.086;16.426;2024-01-25T00:06:52;12.20;55.00
17415;DHT22;8825;48.086;16.426;2024-01-25T00:09:20;12.10;54.80
17415;DHT22;8825;48.086;16.426;2024-01-25T00:11:47;12.20;54.70
17415;DHT22;8825;48.086;16.426;2024-01-25T00:14:15;12.20;54.70
17415;DHT22;8825;48.086;16.426;2024-01-25T00:16:42;12.20;54.80
17415;DHT22;8825;48.086;16.426;2024-01-25T00:19:10;12.20;54.90
17415;DHT22;8825;48.086;16.426;2024-01-25T00:21:42;12.20;54.90
17415;DHT22;8825;48.086;16.426;2024-01-25T00:24:12;12.10;55.00
17415;DHT22;8825;48.086;16.426;2024-01-25T00:26:40;12.10;54.90
17415;DHT22;8825;48.086;16.426;2024-01-25T00:29:07;12.10;55.00
17415;DHT22;8825;48.086;16.426;2024-01-25T00:31:35;12.10;55.10
17415;DHT22;8825;48.086;16.426;2024-01-25T00:34:03;12.10;55.20
17415;DHT22;8825;48.086;16.426;2024-01-25T00:36:30;12.10;55.10
17415;DHT22;8825;48.086;16.426;2024-01-25T00:38:58;12.10;55.20
17415;DHT22;8825;48.086;16.426;2024-01-25T00:41:45;12.10;55.30
17415;DHT22;8825;48.086;16.426;2024-01-25T00:44:14;12.10;55.00
17415;DHT22;8825;48.086;16.426;2024-01-25T00:46:42;12.10;55.30
17415;DHT22;8825;48.086;16.426;2024-01-25T00:49:11;12.10;54.70
17415;DHT22;8825;48.086;16.426;2024-01-25T00:51:41;12.10;54.50
17415;DHT22;8825;48.086;16.426;2024-01-25T00:54:10;12.10;54.50
17415;DHT22;8825;48.086;16.426;2024-01-25T00:56:38;12.10;54.50
17415;DHT22;8825;48.086;16.426;2024-01-25T00:59:06;12.10;54.60
17415;DHT22;8825;48.086;16.426;2024-01-25T01:01:33;12.10;54.50
17415;DHT22;8825;48.086;16.426;2024-01-25T01:04:01;12.10;55.00
17415;DHT22;8825;48.086;16.426;2024-01-25T01:06:29;12.20;54.40
17415;DHT22;8825;48.086;16.426;2024-01-25T01:08:57;12.20;54.30
17415;DHT22;8825;48.086;16.426;2024-01-25T01:11:25;12.10;54.40
17415;DHT22;8825;48.086;16.426;2024-01-25T01:13:53;12.10;54.30
17415;DHT22;8825;48.086;16.426;2024-01-25T01:16:21;12.10;54.40
17415;DHT22;8825;48.086;16.426;2024-01-25T01:18:48;12.10;54.40
17415;DHT22;8825;48.086;16.426;2024-01-25T01:21:16;12.10;54.30
17415;DHT22;8825;48.086;16.426;2024-01-25T01:23:43;12.00;54.10
17415;DHT22;8825;48.086;16.426;2024-01-25T01:26:11;12.10;54.20
17415;DHT22;8825;48.086;16.426;2024-01-25T01:28:39;12.10;54.20
17415;DHT22;8825;48.086;16.426;2024-01-25T01:31:06;12.10;54.30
17415;DHT22;8825;48.086;16.426;2024-01-25T01:33:34;12.00;54.10
17415;DHT22;8825;48.086;16.426;2024-01-25T01:36:01;12.10;54.30
17415;DHT22;8825;48.086;16.426;2024-01-25T01:38:29;12.00;54.20
17415;DHT22;8825;48.086;16.426;2024-01-25T01:40:56;12.00;54.20
17415;DHT22;8825;48.086;16.426;2024-01-25T01:43:24;12.00;54.40
17415;DHT22;8825;48.086;16.426;2024-01-25T01:45:51;12.00;54.40
17415;DHT22;8825;48.086;16.426;2024-01-25T01:48:20;11.90;54.40
17415;DHT22;8825;48.086;16.426;2024-01-25T01:50:48;12.00;54.50
17415;DHT22;8825;48.086;16.426;2024-01-25T01:53:16;11.90;54.60
17415;DHT22;8825;48.086;16.426;2024-01-25T01:55:44;11.90;54.30
17415;DHT22;8825;48.086;16.426;2024-01-25T01:58:12;11.90;54.60
17415;DHT22;8825;48.086;16.426;2024-01-25T02:00:41;11.90;54.50
17415;DHT22;8825;48.086;16.426;2024-01-25T02:03:09;11.80;55.10
17415;DHT22;8825;48.086;16.426;2024-01-25T02:05:37;11.80;54.70
17415;DHT22;8825;48.086;16.426;2024-01-25T02:08:05;11.80;54.70
17415;DHT22;8825;48.086;16.426;2024-01-25T02:10:33;11.80;54.70
17415;DHT22;8825;48.086;16.426;2024-01-25T02:13:00;11.80;54.90
17415;DHT22;8825;48.086;16.426;2024-01-25T02:15:28;11.70;54.80
17415;DHT22;8825;48.086;16.426;2024-01-25T02:17:56;11.80;55.00
17415;DHT22;8825;48.086;16.426;2024-01-25T02:20:24;11.70;54.80
17415;DHT22;8825;48.086;16.426;2024-01-25T02:22:51;11.70;54.60
17415;DHT22;8825;48.086;16.426;2024-01-25T02:25:19;11.70;54.70
17415;DHT22;8825;48.086;16.426;2024-01-25T02:27:46;11.70;54.60
17415;DHT22;8825;48.086;16.426;2024-01-25T02:30:14;11.70;54.70
17415;DHT22;8825;48.086;16.426;2024-01-25T02:32:43;11.70;55.40
17415;DHT22;8825;48.086;16.426;2024-01-25T02:35:10;11.70;54.80
17415;DHT22;8825;48.086;16.426;2024-01-25T02:37:38;11.70;54.70
17415;DHT22;8825;48.086;16.426;2024-01-25T02:40:06;11.70;54.80
17415;DHT22;8825;48.086;16.426;2024-01-25T02:42:34;11.70;54.80
17415;DHT22;8825;48.086;16.426;2024-01-25T02:45:01;11.70;54.80
17415;DHT22;8825;48.086;16.426;2024-01-25T02:47:29;11.70;54.80
17415;DHT22;8825;48.086;16.426;2024-01-25T02:49:57;11.70;54.90
17415;DHT22;8825;48.086;16.426;2024-01-25T02:52:24;11.60;54.70
17415;DHT22;8825;48.086;16.426;2024-01-25T02:54:52;11.70;54.80
17415;DHT22;8825;48.086;16.426;2024-01-25T02:57:19;11.60;54.70
17415;DHT22;8825;48.086;16.426;2024-01-25T02:59:47;11.60;54.70
17415;DHT22;8825;48.086;16.426;2024-01-25T03:02:14;11.60;54.50
17415;DHT22;8825;48.086;16.426;2024-01-25T03:04:43;11.60;54.70
17415;DHT22;8825;48.086;16.426;2024-01-25T03:07:11;11.60;54.80
17415;DHT22;8825;48.086;16.426;2024-01-25T03:09:39;11.60;54.90
17415;DHT22;8825;48.086;16.426;2024-01-25T03:12:07;11.60;54.90
17415;DHT22;8825;48.086;16.426;2024-01-25T03:14:34;11.50;54.80
17415;DHT22;8825;48.086;16.426;2024-01-25T03:17:02;11.60;54.70
17415;DHT22;8825;48.086;16.426;2024-01-25T03:19:29;11.50;54.20
17415;DHT22;8825;48.086;16.426;2024-01-25T03:21:57;11.60;54.30
17415;DHT22;8825;48.086;16.426;2024-01-25T03:24:24;11.60;54.40
17415;DHT22;8825;48.086;16.426;2024-01-25T03:26:52;11.50;54.60
17415;DHT22;8825;48.086;16.426;2024-01-25T03:29:20;11.50;54.90
17415;DHT22;8825;48.086;16.426;2024-01-25T03:31:47;11.50;55.10
17415;DHT22;8825;48.086;16.426;2024-01-25T03:34:16;11.50;55.20
17415;DHT22;8825;48.086;16.426;2024-01-25T03:36:44;11.50;55.50
17415;DHT22;8825;48.086;16.426;2024-01-25T03:39:11;11.50;55.50
17415;DHT22;8825;48.086;16.426;2024-01-25T03:41:39;11.40;55.40
17415;DHT22;8825;48.086;16.426;2024-01-25T03:44:06;11.50;55.40
17415;DHT22;8825;48.086;16.426;2024-01-25T03:46:33;11.50;55.60
17415;DHT22;8825;48.086;16.426;2024-01-25T03:49:01;11.50;55.40
17415;DHT22;8825;48.086;16.426;2024-01-25T03:51:28;11.50;55.50
17415;DHT22;8825;48.086;16.426;2024-01-25T03:53:56;11.50;55.50
17415;DHT22;8825;48.086;16.426;2024-01-25T03:56:24;11.50;55.50
17415;DHT22;8825;48.086;16.426;2024-01-25T03:58:53;11.50;55.60
17415;DHT22;8825;48.086;16.426;2024-01-25T04:01:20;11.50;55.80
17415;DHT22;8825;48.086;16.426;2024-01-25T04:03:48;11.50;55.80
17415;DHT22;8825;48.086;16.426;2024-01-25T04:06:15;11.40;55.80
17415;DHT22;8825;48.086;16.426;2024-01-25T04:08:43;11.40;55.80
17415;DHT22;8825;48.086;16.426;2024-01-25T04:11:11;11.40;56.00
17415;DHT22;8825;48.086;16.426;2024-01-25T04:13:41;11.40;56.00
17415;DHT22;8825;48.086;16.426;2024-01-25T04:16:13;11.40;56.20
17415;DHT22;8825;48.086;16.426;2024-01-25T04:18:39;11.40;56.40
17415;DHT22;8825;48.086;16.426;2024-01-25T04:21:06;11.30;56.40
17415;DHT22;8825;48.086;16.426;2024-01-25T04:23:36;11.30;56.30
17415;DHT22;8825;48.086;16.426;2024-01-25T04:26:03;11.30;56.40
17415;DHT22;8825;48.086;16.426;2024-01-25T04:28:31;11.30;56.40
17415;DHT22;8825;48.086;16.426;2024-01-25T04:30:58;11.30;56.50
17415;DHT22;8825;48.086;16.426;2024-01-25T04:33:26;11.30;56.50
17415;DHT22;8825;48.086;16.426;2024-01-25T04:35:53;11.30;56.30
17415;DHT22;8825;48.086;16.426;2024-01-25T04:38:21;11.30;56.30
17415;DHT22;8825;48.086;16.426;2024-01-25T04:40:49;11.30;56.40
17415;DHT22;8825;48.086;16.426;2024-01-25T04:43:16;11.30;56.50
17415;DHT22;8825;48.086;16.426;2024-01-25T04:45:44;11.30;56.60
17415;DHT22;8825;48.086;16.426;2024-01-25T04:48:11;11.20;56.70
17415;DHT22;8825;48.086;16.426;2024-01-25T04:50:39;11.20;56.80
17415;DHT22;8825;48.086;16.426;2024-01-25T04:53:06;11.20;56.60
17415;DHT22;8825;48.086;16.426;2024-01-25T04:55:34;11.20;56.60
17415;DHT22;8825;48.086;16.426;2024-01-25T04:58:01;11.20;56.80
17415;DHT22;8825;48.086;16.426;2024-01-25T05:00:29;11.20;56.70
17415;DHT22;8825;48.086;16.426;2024-01-25T05:02:57;11.20;56.80
17415;DHT22;8825;48.086;16.426;2024-01-25T05:05:24;11.20;56.80
17415;DHT22;8825;48.086;16.426;2024-01-25T05:07:52;11.10;56.90
17415;DHT22;8825;48.086;16.426;2024-01-25T05:10:19;11.10;56.80
17415;DHT22;8825;48.086;16.426;2024-01-25T05:12:47;11.10;56.80
17415;DHT22;8825;48.086;16.426;2024-01-25T05:15:14;11.20;57.30
17415;DHT22;8825;48.086;16.426;2024-01-25T05:17:43;11.10;56.70
17415;DHT22;8825;48.086;16.426;2024-01-25T05:20:11;11.20;56.80
17415;DHT22;8825;48.086;16.426;2024-01-25T05:22:39;11.20;56.80
17415;DHT22;8825;48.086;16.426;2024-01-25T05:25:08;11.20;56.60
17415;DHT22;8825;48.086;16.426;2024-01-25T05:27:36;11.20;56.60
17415;DHT22;8825;48.086;16.426;2024-01-25T05:30:04;11.20;56.30
17415;DHT22;8825;48.086;16.426;2024-01-25T05:32:32;11.20;56.40
17415;DHT22;8825;48.086;16.426;2024-01-25T05:34:59;11.20;56.30
17415;DHT22;8825;48.086;16.426;2024-01-25T05:37:27;11.20;56.30
17415;DHT22;8825;48.086;16.426;2024-01-25T05:39:54;11.20;56.60
17415;DHT22;8825;48.086;16.426;2024-01-25T05:42:22;11.20;56.50
17415;DHT22;8825;48.086;16.426;2024-01-25T05:44:49;11.20;56.60
17415;DHT22;8825;48.086;16.426;2024-01-25T05:47:17;11.20;56.70
17415;DHT22;8825;48.086;16.426;2024-01-25T05:49:45;11.10;56.60
17415;DHT22;8825;48.086;16.426;2024-01-25T05:52:13;11.20;56.70
17415;DHT22;8825;48.086;16.426;2024-01-25T05:54:40;11.20;56.90
17415;DHT22;8825;48.086;16.426;2024-01-25T05:57:08;11.20;56.80
17415;DHT22;8825;48.086;16.426;2024-01-25T05:59:35;11.10;57.20
17415;DHT22;8825;48.086;16.426;2024-01-25T06:02:03;11.10;56.60
17415;DHT22;8825;48.086;16.426;2024-01-25T06:04:32;11.10;56.60
17415;DHT22;8825;48.086;16.426;2024-01-25T06:06:59;11.10;56.60
17415;DHT22;8825;48.086;16.426;2024-01-25T06:09:27;11.10;56.60
17415;DHT22;8825;48.086;16.426;2024-01-25T06:11:54;11.10;56.60
17415;DHT22;8825;48.086;16.426;2024-01-25T06:14:22;11.10;56.70
17415;DHT22;8825;48.086;16.426;2024-01-25T06:16:49;11.10;56.70
17415;DHT22;8825;48.086;16.426;2024-01-25T06:19:17;11.00;56.70
17415;DHT22;8825;48.086;16.426;2024-01-25T06:21:44;11.00;56.60
17415;DHT22;8825;48.086;16.426;2024-01-25T06:24:31;11.00;56.70
17415;DHT22;8825;48.086;16.426;2024-01-25T06:26:59;11.00;56.60
17415;DHT22;8825;48.086;16.426;2024-01-25T06:29:26;11.00;56.80
17415;DHT22;8825;48.086;16.426;2024-01-25T06:31:54;11.00;57.40
17415;DHT22;8825;48.086;16.426;2024-01-25T06:34:21;11.00;56.80
17415;DHT22;8825;48.086;16.426;2024-01-25T06:36:49;11.00;56.60
17415;DHT22;8825;48.086;16.426;2024-01-25T06:39:16;11.00;56.60
17415;DHT22;8825;48.086;16.426;2024-01-25T06:41:44;10.90;56.60
17415;DHT22;8825;48.086;16.426;2024-01-25T06:44:11;10.90;56.70
17415;DHT22;8825;48.086;16.426;2024-01-25T06:46:39;10.90;56.70
17415;DHT22;8825;48.086;16.426;2024-01-25T06:49:07;10.90;56.70
17415;DHT22;8825;48.086;16.426;2024-01-25T06:51:34;10.90;56.80
17415;DHT22;8825;48.086;16.426;2024-01-25T06:54:02;10.90;56.80
17415;DHT22;8825;48.086;16.426;2024-01-25T06:56:29;10.90;56.90
17415;DHT22;8825;48.086;16.426;2024-01-25T06:58:57;11.00;56.90
17415;DHT22;8825;48.086;16.426;2024-01-25T07:01:25;10.90;56.80
17415;DHT22;8825;48.086;16.426;2024-01-25T07:03:54;10.90;56.90
17415;DHT22;8825;48.086;16.426;2024-01-25T07:06:22;11.00;56.70
17415;DHT22;8825;48.086;16.426;2024-01-25T07:08:49;11.00;56.70
17415;DHT22;8825;48.086;16.426;2024-01-25T07:11:17;11.00;56.70
17415;DHT22;8825;48.086;16.426;2024-01-25T07:13:44;11.00;56.70
17415;DHT22;8825;48.086;16.426;2024-01-25T07:16:12;11.10;56.80
17415;DHT22;8825;48.086;16.426;2024-01-25T07:18:39;11.10;56.90
17415;DHT22;8825;48.086;16.426;2024-01-25T07:21:07;11.00;56.90
17415;DHT22;8825;48.086;16.426;2024-01-25T07:23:34;11.10;56.90
17415;DHT22;8825;48.086;16.426;2024-01-25T07:26:02;11.10;56.90
17415;DHT22;8825;48.086;16.426;2024-01-25T07:28:29;11.10;57.00
17415;DHT22;8825;48.086;16.426;2024-01-25T07:30:57;11.10;56.90
17415;DHT22;8825;48.086;16.426;2024-01-25T07:33:24;11.10;56.90
17415;DHT22;8825;48.086;16.426;2024-01-25T07:35:52;11.10;56.80
17415;DHT22;8825;48.086;16.426;2024-01-25T07:38:19;11.10;56.70
17415;DHT22;8825;48.086;16.426;2024-01-25T07:40:47;11.10;56.70
17415;DHT22;8825;48.086;16.426;2024-01-25T07:43:14;11.20;56.80
17415;DHT22;8825;48.086;16.426;2024-01-25T07:45:42;11.10;56.80
17415;DHT22;8825;48.086;16.426;2024-01-25T07:48:09;11.10;56.80
17415;DHT22;8825;48.086;16.426;2024-01-25T07:50:37;11.20;56.70
17415;DHT22;8825;48.086;16.426;2024-01-25T07:53:04;11.20;56.70
17415;DHT22;8825;48.086;16.426;2024-01-25T07:55:32;11.20;56.80
17415;DHT22;8825;48.086;16.426;2024-01-25T07:57:59;11.20;56.90
17415;DHT22;8825;48.086;16.426;2024-01-25T08:00:27;11.20;57.00
17415;DHT22;8825;48.086;16.426;2024-01-25T08:02:54;11.20;57.00
17415;DHT22;8825;48.086;16.426;2024-01-25T08:05:22;11.20;57.00
17415;DHT22;8825;48.086;16.426;2024-01-25T08:07:49;11.20;57.00
17415;DHT22;8825;48.086;16.426;2024-01-25T08:10:17;11.20;57.10
17415;DHT22;8825;48.086;16.426;2024-01-25T08:12:44;11.20;57.00
17415;DHT22;8825;48.086;16.426;2024-01-25T08:15:14;11.20;57.00
17415;DHT22;8825;48.086;16.426;2024-01-25T08:17:41;11.20;56.90
17415;DHT22;8825;48.086;16.426;2024-01-25T08:20:10;11.20;56.90
17415;DHT22;8825;48.086;16.426;2024-01-25T08:22:41;11.30;57.40
17415;DHT22;8825;48.086;16.426;2024-01-25T08:25:08;11.30;56.80
17415;DHT22;8825;48.086;16.426;2024-01-25T08:27:36;11.30;56.50
17415;DHT22;8825;48.086;16.426;2024-01-25T08:30:04;11.40;56.30
17415;DHT22;8825;48.086;16.426;2024-01-25T08:32:32;11.40;56.00
17415;DHT22;8825;48.086;16.426;2024-01-25T08:34:59;11.40;55.70
17415;DHT22;8825;48.086;16.426;2024-01-25T08:37:27;11.50;55.50
17415;DHT22;8825;48.086;16.426;2024-01-25T08:39:54;11.50;55.60
17415;DHT22;8825;48.086;16.426;2024-01-25T08:42:22;11.50;55.70
17415;DHT22;8825;48.086;16.426;2024-01-25T08:44:49;11.50;55.60
17415;DHT22;8825;48.086;16.426;2024-01-25T08:47:18;11.50;55.70
17415;DHT22;8825;48.086;16.426;2024-01-25T08:49:45;11.50;55.70
17415;DHT22;8825;48.086;16.426;2024-01-25T08:52:13;11.50;55.90
17415;DHT22;8825;48.086;16.426;2024-01-25T08:54:41;11.50;56.00
17415;DHT22;8825;48.086;16.426;2024-01-25T08:57:10;11.50;56.20
17415;DHT22;8825;48.086;16.426;2024-01-25T08:59:37;11.50;56.30
17415;DHT22;8825;48.086;16.426;2024-01-25T09:02:05;11.50;56.50
17415;DHT22;8825;48.086;16.426;2024-01-25T09:04:33;11.50;56.60
17415;DHT22;8825;48.086;16.426;2024-01-25T09:07:00;11.50;56.70
17415;DHT22;8825;48.086;16.426;2024-01-25T09:09:28;11.60;56.70
17415;DHT22;8825;48.086;16.426;2024-01-25T09:11:56;11.60;56.60
17415;DHT22;8825;48.086;16.426;2024-01-25T09:14:23;11.60;56.50
17415;DHT22;8825;48.086;16.426;2024-01-25T09:16:51;11.70;56.10
17415;DHT22;8825;48.086;16.426;2024-01-25T09:19:18;11.80;56.20
17415;DHT22;8825;48.086;16.426;2024-01-25T09:21:46;11.90;55.70
17415;DHT22;8825;48.086;16.426;2024-01-25T09:24:13;12.00;55.50
17415;DHT22;8825;48.086;16.426;2024-01-25T09:26:41;12.20;55.20
17415;DHT22;8825;48.086;16.426;2024-01-25T09:29:08;12.60;55.20
17415;DHT22;8825;48.086;16.426;2024-01-25T09:31:36;13.20;53.90
17415;DHT22;8825;48.086;16.426;2024-01-25T09:34:03;13.70;53.20
17415;DHT22;8825;48.086;16.426;2024-01-25T09:36:31;14.30;51.80
17415;DHT22;8825;48.086;16.426;2024-01-25T09:38:58;14.80;50.40
17415;DHT22;8825;48.086;16.426;2024-01-25T09:41:26;15.30;49.50
17415;DHT22;8825;48.086;16.426;2024-01-25T09:43:53;15.90;48.80
17415;DHT22;8825;48.086;16.426;2024-01-25T09:46:21;16.40;47.10
17415;DHT22;8825;48.086;16.426;2024-01-25T09:48:49;16.70;46.20
17415;DHT22;8825;48.086;16.426;2024-01-25T09:51:17;17.00;45.40
17415;DHT22;8825;48.086;16.426;2024-01-25T09:53:46;17.30;44.60
17415;DHT22;8825;48.086;16.426;2024-01-25T09:56:17;17.30;43.70
17415;DHT22;8825;48.086;16.426;2024-01-25T09:58:46;17.10;43.40
17415;DHT22;8825;48.086;16.426;2024-01-25T10:01:15;16.70;43.70
17415;DHT22;8825;48.086;16.426;2024-01-25T10:03:44;16.30;44.40
17415;DHT22;8825;48.086;16.426;2024-01-25T10:06:15;15.90;45.10
17415;DHT22;8825;48.086;16.426;2024-01-25T10:08:44;15.80;45.00
17415;DHT22;8825;48.086;16.426;2024-01-25T10:11:12;16.30;45.10
17415;DHT22;8825;48.086;16.426;2024-01-25T10:13:49;16.90;44.30
17415;DHT22;8825;48.086;16.426;2024-01-25T10:16:19;17.20;43.70
17415;DHT22;8825;48.086;16.426;2024-01-25T10:18:48;17.00;43.40
17415;DHT22;8825;48.086;16.426;2024-01-25T10:21:16;16.80;43.90
17415;DHT22;8825;48.086;16.426;2024-01-25T10:23:46;16.60;44.20
17415;DHT22;8825;48.086;16.426;2024-01-25T10:26:15;16.30;44.50
17415;DHT22;8825;48.086;16.426;2024-01-25T10:28:49;16.10;45.20
17415;DHT22;8825;48.086;16.426;2024-01-25T10:31:12;15.90;45.50
17415;DHT22;8825;48.086;16.426;2024-01-25T10:33:40;16.10;45.60
17415;DHT22;8825;48.086;16.426;2024-01-25T10:36:08;16.30;45.00
17415;DHT22;8825;48.086;16.426;2024-01-25T10:38:38;16.10;44.90
17415;DHT22;8825;48.086;16.426;2024-01-25T10:41:06;16.00;45.30
17415;DHT22;8825;48.086;16.426;2024-01-25T10:43:33;16.10;45.60
17415;DHT22;8825;48.086;16.426;2024-01-25T10:46:01;16.50;45.50
17415;DHT22;8825;48.086;16.426;2024-01-25T10:48:29;16.50;44.80
17415;DHT22;8825;48.086;16.426;2024-01-25T10:50:58;16.20;44.40
17415;DHT22;8825;48.086;16.426;2024-01-25T10:53:30;16.00;45.20
17415;DHT22;8825;48.086;16.426;2024-01-25T10:55:58;16.10;45.20
17415;DHT22;8825;48.086;16.426;2024-01-25T10:58:31;16.30;45.10
17415;DHT22;8825;48.086;16.426;2024-01-25T11:01:00;16.50;45.10
17415;DHT22;8825;48.086;16.426;2024-01-25T11:03:28;16.70;43.90
17415;DHT22;8825;48.086;16.426;2024-01-25T11:06:10;16.70;43.80
17415;DHT22;8825;48.086;16.426;2024-01-25T11:08:39;16.60;43.30
17415;DHT22;8825;48.086;16.426;2024-01-25T11:11:10;16.80;43.40
17415;DHT22;8825;48.086;16.426;2024-01-25T11:13:45;17.10;42.80
17415;DHT22;8825;48.086;16.426;2024-01-25T11:16:28;17.10;42.00
17415;DHT22;8825;48.086;16.426;2024-01-25T11:18:49;16.80;41.20
17415;DHT22;8825;48.086;16.426;2024-01-25T11:21:40;16.60;42.00
17415;DHT22;8825;48.086;16.426;2024-01-25T11:24:16;16.40;42.70
17415;DHT22;8825;48.086;16.426;2024-01-25T11:26:44;16.00;42.70
17415;DHT22;8825;48.086;16.426;2024-01-25T11:29:19;15.60;43.40
17415;DHT22;8825;48.086;16.426;2024-01-25T11:31:50;15.20;43.90
17415;DHT22;8825;48.086;16.426;2024-01-25T11:34:18;14.90;44.30
17415;DHT22;8825;48.086;16.426;2024-01-25T11:36:46;14.70;44.80
17415;DHT22;8825;48.086;16.426;2024-01-25T11:39:15;14.60;45.20
17415;DHT22;8825;48.086;16.426;2024-01-25T11:41:44;14.40;45.40
17415;DHT22;8825;48.086;16.426;2024-01-25T11:44:13;14.20;45.80
17415;DHT22;8825;48.086;16.426;2024-01-25T11:46:41;14.10;46.40
17415;DHT22;8825;48.086;16.426;2024-01-25T11:49:09;14.00;46.40
17415;DHT22;8825;48.086;16.426;2024-01-25T11:51:37;13.90;46.20
17415;DHT22;8825;48.086;16.426;2024-01-25T11:54:04;13.90;46.60
17415;DHT22;8825;48.086;16.426;2024-01-25T11:56:37;13.80;46.70
17415;DHT22;8825;48.086;16.426;2024-01-25T11:59:05;13.70;46.70
17415;DHT22;8825;48.086;16.426;2024-01-25T12:01:33;13.60;46.80
17415;DHT22;8825;48.086;16.426;2024-01-25T12:04:00;13.60;46.90
17415;DHT22;8825;48.086;16.426;2024-01-25T12:06:29;13.70;47.20
17415;DHT22;8825;48.086;16.426;2024-01-25T12:09:08;13.80;47.10
17415;DHT22;8825;48.086;16.426;2024-01-25T12:11:35;13.80;47.50
17415;DHT22;8825;48.086;16.426;2024-01-25T12:14:03;13.80;47.10
17415;DHT22;8825;48.086;16.426;2024-01-25T12:16:31;13.80;47.00
17415;DHT22;8825;48.086;16.426;2024-01-25T12:18:58;13.70;46.60
17415;DHT22;8825;48.086;16.426;2024-01-25T12:21:26;13.70;46.50
17415;DHT22;8825;48.086;16.426;2024-01-25T12:23:53;13.70;46.90
17415;DHT22;8825;48.086;16.426;2024-01-25T12:26:21;13.70;47.30
17415;DHT22;8825;48.086;16.426;2024-01-25T12:28:49;13.70;47.20
17415;DHT22;8825;48.086;16.426;2024-01-25T12:31:16;13.70;47.10
17415;DHT22;8825;48.086;16.426;2024-01-25T12:33:44;13.70;47.30
17415;DHT22;8825;48.086;16.426;2024-01-25T12:36:12;13.60;46.90
17415;DHT22;8825;48.086;16.426;2024-01-25T12:38:40;13.60;47.20
17415;DHT22;8825;48.086;16.426;2024-01-25T12:41:08;13.60;46.80
17415;DHT22;8825;48.086;16.426;2024-01-25T12:43:35;13.70;46.90
17415;DHT22;8825;48.086;16.426;2024-01-25T12:46:03;13.60;46.60
17415;DHT22;8825;48.086;16.426;2024-01-25T12:48:30;13.60;46.40
17415;DHT22;8825;48.086;16.426;2024-01-25T12:50:58;13.60;46.70
17415;DHT22;8825;48.086;16.426;2024-01-25T12:53:26;13.50;46.40
17415;DHT22;8825;48.086;16.426;2024-01-25T12:55:53;13.50;46.70
17415;DHT22;8825;48.086;16.426;2024-01-25T12:58:21;13.50;46.50
17415;DHT22;8825;48.086;16.426;2024-01-25T13:00:48;13.40;46.50
17415;DHT22;8825;48.086;16.426;2024-01-25T13:03:16;13.40;46.20
17415;DHT22;8825;48.086;16.426;2024-01-25T13:05:43;13.40;46.20
17415;DHT22;8825;48.086;16.426;2024-01-25T13:08:11;13.40;47.20
17415;DHT22;8825;48.086;16.426;2024-01-25T13:10:39;13.50;46.70
17415;DHT22;8825;48.086;16.426;2024-01-25T13:13:06;13.40;46.50
17415;DHT22;8825;48.086;16.426;2024-01-25T13:15:33;13.40;46.70
17415;DHT22;8825;48.086;16.426;2024-01-25T13:18:01;13.40;46.90
17415;DHT22;8825;48.086;16.426;2024-01-25T13:20:28;13.50;46.90
17415;DHT22;8825;48.086;16.426;2024-01-25T13:22:56;13.40;46.60
17415;DHT22;8825;48.086;16.426;2024-01-25T13:25:23;13.40;46.50
17415;DHT22;8825;48.086;16.426;2024-01-25T13:27:51;13.40;46.50
17415;DHT22;8825;48.086;16.426;2024-01-25T13:30:19;13.30;46.00
17415;DHT22;8825;48.086;16.426;2024-01-25T13:32:47;13.20;45.70
17415;DHT22;8825;48.086;16.426;2024-01-25T13:35:14;13.20;45.90
17415;DHT22;8825;48.086;16.426;2024-01-25T13:37:41;13.20;46.20
17415;DHT22;8825;48.086;16.426;2024-01-25T13:40:09;13.10;46.30
17415;DHT22;8825;48.086;16.426;2024-01-25T13:42:37;13.10;46.00
17415;DHT22;8825;48.086;16.426;2024-01-25T13:45:06;13.00;46.20
17415;DHT22;8825;48.086;16.426;2024-01-25T13:47:34;13.00;46.30
17415;DHT22;8825;48.086;16.426;2024-01-25T13:50:02;13.00;46.40
17415;DHT22;8825;48.086;16.426;2024-01-25T13:52:29;12.90;46.30
17415;DHT22;8825;48.086;16.426;2024-01-25T13:54:57;12.90;45.70
17415;DHT22;8825;48.086;16.426;2024-01-25T13:57:24;12.80;45.70
17415;DHT22;8825;48.086;16.426;2024-01-25T13:59:52;12.80;45.70
17415;DHT22;8825;48.086;16.426;2024-01-25T14:02:19;12.80;45.90
17415;DHT22;8825;48.086;16.426;2024-01-25T14:04:47;12.70;45.50
17415;DHT22;8825;48.086;16.426;2024-01-25T14:07:15;12.70;45.40
17415;DHT22;8825;48.086;16.426;2024-01-25T14:09:47;12.70;45.60
17415;DHT22;8825;48.086;16.426;2024-01-25T14:12:14;12.60;45.90
17415;DHT22;8825;48.086;16.426;2024-01-25T14:14:42;12.60;46.00
17415;DHT22;8825;48.086;16.426;2024-01-25T14:17:09;12.60;46.00
17415;DHT22;8825;48.086;16.426;2024-01-25T14:19:37;12.60;46.00
17415;DHT22;8825;48.086;16.426;2024-01-25T14:22:05;12.60;46.10
17415;DHT22;8825;48.086;16.426;2024-01-25T14:24:32;12.50;46.10
17415;DHT22;8825;48.086;16.426;2024-01-25T14:27:00;12.50;46.00
17415;DHT22;8825;48.086;16.426;2024-01-25T14:29:27;12.50;46.70
17415;DHT22;8825;48.086;16.426;2024-01-25T14:31:57;12.40;46.10
17415;DHT22;8825;48.086;16.426;2024-01-25T14:34:24;12.40;46.00
17415;DHT22;8825;48.086;16.426;2024-01-25T14:36:52;12.30;46.10
17415;DHT22;8825;48.086;16.426;2024-01-25T14:39:19;12.30;46.30
17415;DHT22;8825;48.086;16.426;2024-01-25T14:41:47;12.30;46.40
17415;DHT22;8825;48.086;16.426;2024-01-25T14:44:14;12.20;46.20
17415;DHT22;8825;48.086;16.426;2024-01-25T14:46:42;12.20;45.80
17415;DHT22;8825;48.086;16.426;2024-01-25T14:49:10;12.20;46.00
17415;DHT22;8825;48.086;16.426;2024-01-25T14:51:38;12.20;46.30
17415;DHT22;8825;48.086;16.426;2024-01-25T14:54:05;12.10;46.10
17415;DHT22;8825;48.086;16.426;2024-01-25T14:56:33;12.10;46.10
17415;DHT22;8825;48.086;16.426;2024-01-25T14:59:00;12.10;46.10
17415;DHT22;8825;48.086;16.426;2024-01-25T15:01:29;12.10;46.00
17415;DHT22;8825;48.086;16.426;2024-01-25T15:03:57;12.00;46.20
17415;DHT22;8825;48.086;16.426;2024-01-25T15:06:24;12.00;46.20
17415;DHT22;8825;48.086;16.426;2024-01-25T15:08:52;11.90;46.30
17415;DHT22;8825;48.086;16.426;2024-01-25T15:11:19;11.90;46.40
17415;DHT22;8825;48.086;16.426;2024-01-25T15:13:47;11.80;46.50
17415;DHT22;8825;48.086;16.426;2024-01-25T15:16:15;11.80;46.50
17415;DHT22;8825;48.086;16.426;2024-01-25T15:18:42;11.80;46.80
17415;DHT22;8825;48.086;16.426;2024-01-25T15:21:10;11.70;47.00
17415;DHT22;8825;48.086;16.426;2024-01-25T15:23:37;11.70;46.90
17415;DHT22;8825;48.086;16.426;2024-01-25T15:26:05;11.60;47.00
17415;DHT22;8825;48.086;16.426;2024-01-25T15:28:33;11.60;47.00
17415;DHT22;8825;48.086;16.426;2024-01-25T15:31:01;11.50;47.30
17415;DHT22;8825;48.086;16.426;2024-01-25T15:33:29;11.50;47.30
17415;DHT22;8825;48.086;16.426;2024-01-25T15:35:56;11.40;47.50